Time;durP1;ratioP1;P1;durP2;ratioP2;P2;SDS_P1;SDS_P2;PMS_P1;PMS_P2;Temp;Humidity;BMP_temperature;BMP_pressure;BME280_temperature;BME280_humidity;BME280_pressure;Samples;Min_cycle;Max_cycle;Signal;HPM_P1;HPM_P2
2021/06/14 00:01:48;;;;;;;6.03;2.78;;;;;;;13.97;58.84;96121.09;5051853;28;20057;-72
2021/06/14 00:04:13;;;;;;;4.88;2.92;;;;;;;13.98;59.47;96135.25;5051526;28;20041;-72
2021/06/14 00:06:39;;;;;;;6.28;3.45;;;;;;;13.97;59.58;96125.63;5051703;28;20059;-72
2021/06/14 00:09:06;;;;;;;5.15;3.28;;;;;;;13.94;59.20;96129.69;5035759;28;20470;-72
2021/06/14 00:11:32;;;;;;;4.40;3.40;;;;;;;13.90;59.56;96126.03;5051596;28;20045;-71
2021/06/14 00:13:58;;;;;;;3.90;2.92;;;;;;;13.74;59.75;96100.72;5050799;28;20540;-73
2021/06/14 00:16:23;;;;;;;5.38;3.60;;;;;;;13.80;60.25;96120.91;5050048;28;20048;-72
2021/06/14 00:18:51;;;;;;;4.38;3.17;;;;;;;13.71;59.90;96112.78;5033798;28;20132;-73
2021/06/14 00:21:17;;;;;;;5.35;3.47;;;;;;;13.84;60.25;96126.44;5051623;28;20483;-72
2021/06/14 00:23:43;;;;;;;3.40;3.10;;;;;;;13.83;60.54;96141.72;5053098;28;20032;-72
2021/06/14 00:26:12;;;;;;;5.88;3.53;;;;;;;13.68;60.74;96123.31;5050814;28;20044;-72
2021/06/14 00:28:39;;;;;;;3.80;3.28;;;;;;;13.48;61.06;96095.91;5033175;28;20031;-71
2021/06/14 00:31:05;;;;;;;3.30;2.97;;;;;;;13.55;61.20;96108.06;5051326;28;20037;-71
2021/06/14 00:33:31;;;;;;;6.03;4.10;;;;;;;13.62;61.33;96130.66;5049441;28;20094;-72
2021/06/14 00:35:56;;;;;;;5.20;3.08;;;;;;;13.51;61.73;96114.03;5053335;28;20025;-72
2021/06/14 00:38:22;;;;;;;5.90;3.38;;;;;;;13.40;61.61;96093.91;5051293;28;20030;-72
2021/06/14 00:40:48;;;;;;;4.85;3.28;;;;;;;13.61;61.76;96125.56;5051312;28;20029;-72
2021/06/14 00:43:15;;;;;;;4.20;3.05;;;;;;;13.58;62.06;96118.97;5050031;28;20056;-72
2021/06/14 00:45:47;;;;;;;4.55;2.95;;;;;;;13.44;61.53;96105.59;5051762;28;20056;-74
2021/06/14 00:48:12;;;;;;;;;;;;;;;13.54;62.34;96120.63;5034077;28;20029;-74
2021/06/14 00:50:42;;;;;;;4.07;3.35;;;;;;;13.43;61.78;96106.69;5035534;28;20285;-74
2021/06/14 00:53:10;;;;;;;3.97;3.22;;;;;;;13.52;62.71;96120.94;5032870;28;20398;-73
2021/06/14 00:55:36;;;;;;;4.70;3.10;;;;;;;13.35;62.67;96099.38;5049354;28;20090;-73
2021/06/14 00:58:03;;;;;;;4.03;3.20;;;;;;;13.38;62.68;96087.31;5032215;28;20037;-73
2021/06/14 01:00:29;;;;;;;6.50;4.00;;;;;;;13.44;62.92;96105.59;5032076;28;20095;-73
2021/06/14 01:02:54;;;;;;;6.40;3.30;;;;;;;13.43;62.85;96105.91;5034246;28;20430;-75
2021/06/14 01:05:19;;;;;;;4.47;2.88;;;;;;;13.36;63.43;96098.28;5050493;28;20060;-73
2021/06/14 01:07:45;;;;;;;5.60;3.30;;;;;;;13.26;63.60;96077.91;5050801;28;20033;-73
2021/06/14 01:10:14;;;;;;;3.55;3.25;;;;;;;13.32;63.61;96091.97;5050814;28;20033;-73
2021/06/14 01:12:49;;;;;;;4.78;3.30;;;;;;;13.17;64.18;96085.00;5031926;28;20044;-73
2021/06/14 01:15:16;;;;;;;4.85;3.60;;;;;;;13.23;64.26;96083.84;5070624;28;20029;-73
2021/06/14 01:17:50;;;;;;;4.82;3.55;;;;;;;13.09;64.35;96063.53;5072528;28;20013;-73
2021/06/14 01:20:48;;;;;;;5.00;3.80;;;;;;;13.23;65.12;96096.41;5070767;28;20113;-73
2021/06/14 01:23:57;;;;;;;4.60;3.38;;;;;;;13.22;64.97;96102.84;5051529;28;20718;-72
2021/06/14 01:26:25;;;;;;;4.70;3.40;;;;;;;13.11;66.16;96088.06;5067788;28;20054;-73
2021/06/14 01:28:54;;;;;;;4.88;3.92;;;;;;;13.03;65.96;96078.84;5050045;28;20033;-74
2021/06/14 01:31:22;;;;;;;6.63;3.47;;;;;;;13.10;65.95;96086.47;5050395;28;20099;-73
2021/06/14 01:33:49;;;;;;;4.32;3.90;;;;;;;13.00;66.05;96072.25;5049548;28;20037;-74
2021/06/14 01:36:15;;;;;;;4.80;3.70;;;;;;;13.09;66.21;96096.38;5050182;28;20504;-73
2021/06/14 01:38:43;;;;;;;6.18;3.65;;;;;;;12.98;66.40;96084.28;5052091;28;20104;-73
2021/06/14 01:41:10;;;;;;;6.80;4.13;;;;;;;12.85;66.85;96058.38;5032087;28;20029;-73
2021/06/14 01:43:39;;;;;;;6.75;3.30;;;;;;;12.91;66.45;96079.34;5031160;28;20033;-73
2021/06/14 01:46:11;;;;;;;5.07;3.28;;;;;;;12.81;66.77;96068.06;5068862;28;20039;-73
2021/06/14 01:48:38;;;;;;;6.32;4.00;;;;;;;12.91;67.38;96082.03;5069995;28;20037;-75
2021/06/14 01:51:06;;;;;;;4.53;3.50;;;;;;;12.84;67.11;96068.25;5072010;28;20025;-73
2021/06/14 01:53:32;;;;;;;4.82;3.60;;;;;;;12.86;67.07;96084.78;5069576;28;20047;-72
2021/06/14 01:55:58;;;;;;;6.60;4.00;;;;;;;12.81;67.52;96071.53;5051505;28;20032;-73
2021/06/14 01:58:24;;;;;;;4.40;3.92;;;;;;;12.65;67.47;96052.31;5051545;28;20033;-73
2021/06/14 02:00:50;;;;;;;6.53;3.67;;;;;;;12.71;67.64;96069.81;5048876;28;20399;-73
2021/06/14 02:03:17;;;;;;;5.03;3.78;;;;;;;12.75;67.40;96070.81;5069094;28;20032;-73
2021/06/14 02:05:45;;;;;;;4.13;3.72;;;;;;;12.75;67.35;96059.34;5053582;28;20115;-73
2021/06/14 02:08:13;;;;;;;5.07;3.75;;;;;;;12.55;67.33;96033.03;5069326;28;20044;-73
2021/06/14 02:10:39;;;;;;;4.38;3.95;;;;;;;12.67;67.88;96060.03;5069334;28;20441;-73
2021/06/14 02:13:06;;;;;;;5.18;3.72;;;;;;;12.68;67.42;96048.25;5054141;28;20043;-73
2021/06/14 02:15:32;;;;;;;5.78;4.18;;;;;;;12.60;67.58;96036.41;5047989;28;20433;-73
2021/06/14 02:18:00;;;;;;;6.10;4.00;;;;;;;12.62;67.81;96044.88;5033459;28;20071;-73
2021/06/14 02:20:25;;;;;;;5.25;4.10;;;;;;;12.63;67.83;96056.34;5031130;28;20033;-73
2021/06/14 02:22:51;;;;;;;6.35;4.25;;;;;;;12.60;68.32;96046.28;5048801;28;20120;-73
2021/06/14 02:25:18;;;;;;;7.28;4.20;;;;;;;12.52;68.15;96034.41;5049074;28;20037;-73
2021/06/14 02:27:43;;;;;;;4.75;4.13;;;;;;;12.52;67.85;96039.72;5050166;28;20128;-73
2021/06/14 02:30:16;;;;;;;8.73;4.55;;;;;;;12.50;68.73;96041.91;5070817;28;20104;-73
2021/06/14 02:32:43;;;;;;;6.22;4.80;;;;;;;12.47;68.89;96043.28;5068608;28;20033;-73
2021/06/14 02:35:10;;;;;;;5.60;4.65;;;;;;;12.44;69.05;96035.88;5049719;28;20045;-73
2021/06/14 02:37:37;;;;;;;6.65;3.97;;;;;;;12.38;69.15;96034.34;5046956;28;20072;-73
2021/06/14 02:40:05;;;;;;;5.60;4.40;;;;;;;12.32;70.07;96026.75;5047721;28;20441;-73
2021/06/14 02:42:31;;;;;;;7.95;5.50;;;;;;;12.40;69.95;96020.75;5038336;28;20060;-72
2021/06/14 02:44:57;;;;;;;5.18;4.47;;;;;;;12.18;69.78;95995.50;5046288;28;20060;-73
2021/06/14 02:47:23;;;;;;;5.25;4.13;;;;;;;12.33;69.97;96021.09;5027816;28;20061;-73
2021/06/14 02:49:50;;;;;;;7.22;4.88;;;;;;;12.45;69.39;96037.47;5027783;28;20076;-73
2021/06/14 02:52:16;;;;;;;7.65;4.30;;;;;;;12.45;69.36;96034.78;5028432;28;20029;-73
2021/06/14 02:54:50;;;;;;;5.18;4.28;;;;;;;12.39;69.47;96022.63;5027308;28;20041;-72
2021/06/14 02:57:16;;;;;;;6.13;4.07;;;;;;;12.31;69.18;96012.63;5028247;28;20022;-73
2021/06/14 02:59:45;;;;;;;6.32;4.40;;;;;;;12.34;69.60;95997.91;5030378;28;20013;-73
2021/06/14 03:02:11;;;;;;;4.72;4.18;;;;;;;12.35;69.35;96013.63;5028360;28;20499;-73
2021/06/14 03:04:37;;;;;;;6.38;4.18;;;;;;;12.49;68.87;96024.31;5040582;28;20105;-72
2021/06/14 03:07:04;;;;;;;6.05;4.38;;;;;;;12.34;69.09;96004.03;5048312;28;20036;-72
2021/06/14 03:09:29;;;;;;;10.05;4.95;;;;;;;12.34;68.69;95995.25;5030637;28;20056;-72
2021/06/14 03:11:56;;;;;;;7.15;4.90;;;;;;;12.17;69.08;95991.22;5048971;28;20021;-73
2021/06/14 03:14:23;;;;;;;4.70;4.20;;;;;;;12.41;68.27;95996.44;5048221;28;20048;-72
2021/06/14 03:16:48;;;;;;;6.82;4.40;;;;;;;12.61;67.41;96029.97;5054995;28;20044;-73
2021/06/14 03:19:15;;;;;;;7.43;4.35;;;;;;;12.65;67.01;96019.50;5057022;28;20036;-71
2021/06/14 03:21:41;;;;;;;8.55;4.20;;;;;;;12.70;66.58;96009.53;5068541;28;20082;-72
2021/06/14 03:24:07;;;;;;;4.90;4.10;;;;;;;12.73;66.72;96010.78;5071028;28;20028;-72
2021/06/14 03:26:44;;;;;;;6.05;4.63;;;;;;;12.82;66.35;96022.38;5072594;28;20043;-73
2021/06/14 03:29:14;;;;;;;5.18;3.63;;;;;;;12.79;66.22;96008.81;5063500;28;20183;-72
2021/06/14 03:31:41;;;;;;;6.03;4.15;;;;;;;12.81;65.75;96010.13;5054673;28;20071;-72
2021/06/14 03:34:07;;;;;;;6.85;3.72;;;;;;;12.75;65.63;96008.63;5071676;28;20494;-72
2021/06/14 03:36:33;;;;;;;7.18;4.43;;;;;;;12.81;66.19;96010.13;5072190;28;20062;-72
2021/06/14 03:39:00;;;;;;;4.97;4.30;;;;;;;12.88;66.36;96015.06;5056324;28;20032;-71
2021/06/14 03:41:26;;;;;;;4.88;3.85;;;;;;;12.86;66.15;96004.69;5054499;28;20123;-73
2021/06/14 03:43:51;;;;;;;6.15;4.07;;;;;;;12.82;66.27;96000.22;5036323;28;20132;-73
2021/06/14 03:46:17;;;;;;;5.30;3.88;;;;;;;13.05;65.74;96017.13;5064752;28;20033;-72
2021/06/14 03:48:44;;;;;;;8.32;4.00;;;;;;;13.20;65.12;96036.31;5072130;28;20037;-73
2021/06/14 03:51:09;;;;;;;5.03;4.20;;;;;;;13.05;64.85;96009.94;5074192;28;20029;-72
2021/06/14 03:53:34;;;;;;;5.20;4.10;;;;;;;13.17;65.03;96015.53;5071837;28;20400;-72
2021/06/14 03:56:07;;;;;;;5.47;3.72;;;;;;;13.24;64.44;96010.59;5071759;28;20446;-72
2021/06/14 03:58:33;;;;;;;6.63;4.20;;;;;;;13.35;64.46;96024.53;5057461;28;20487;-73
2021/06/14 04:00:59;;;;;;;6.35;4.15;;;;;;;13.48;64.27;96022.94;5051653;28;20044;-73
2021/06/14 04:03:27;;;;;;;5.25;2.97;;;;;;;13.85;63.24;96037.09;5051273;28;20064;-73
2021/06/14 04:05:58;;;;;;;8.23;3.30;;;;;;;14.32;62.85;96041.84;5053905;28;20107;-72
2021/06/14 04:08:23;;;;;;;5.22;3.20;;;;;;;14.81;61.91;96031.28;5051831;28;20048;-73
2021/06/14 04:10:49;;;;;;;3.45;3.03;;;;;;;15.28;60.61;96018.19;5051747;28;20037;-74
2021/06/14 04:13:14;;;;;;;4.35;2.88;;;;;;;15.75;59.14;96032.63;5050780;28;20398;-73
2021/06/14 04:15:40;;;;;;;5.75;3.15;;;;;;;16.20;57.50;96048.44;5049976;28;20494;-74
2021/06/14 04:18:06;;;;;;;6.15;3.28;;;;;;;16.47;56.82;96030.38;5053704;28;20025;-73
2021/06/14 04:20:32;;;;;;;3.92;2.47;;;;;;;16.87;56.01;96042.47;5051596;28;20033;-73
2021/06/14 04:22:57;;;;;;;2.75;2.47;;;;;;;16.94;54.16;96012.41;5051168;28;20056;-73
2021/06/14 04:25:23;;;;;;;4.22;2.92;;;;;;;17.36;54.20;96028.66;5051366;28;20045;-73
2021/06/14 04:27:48;;;;;;;3.83;2.90;;;;;;;17.43;53.23;96007.41;5032926;28;20033;-74
2021/06/14 04:30:15;;;;;;;4.85;2.80;;;;;;;17.68;52.79;96022.56;5055047;28;20121;-74
2021/06/14 04:32:40;;;;;;;4.60;3.00;;;;;;;17.92;51.91;96021.97;5073060;28;20017;-74
2021/06/14 04:35:07;;;;;;;4.53;3.05;;;;;;;18.15;51.65;96025.06;5070250;28;20055;-74
2021/06/14 04:37:33;;;;;;;4.03;2.55;;;;;;;18.43;51.23;96029.91;5070401;28;20072;-74
2021/06/14 04:39:59;;;;;;;5.50;3.22;;;;;;;18.55;50.49;96029.94;5053235;28;20506;-74
2021/06/14 04:42:26;;;;;;;4.72;2.88;;;;;;;18.67;49.91;96024.56;5066253;28;20032;-75
2021/06/14 04:44:51;;;;;;;5.05;3.10;;;;;;;18.47;49.36;96000.38;5070489;28;20621;-75
2021/06/14 04:47:17;;;;;;;4.85;2.80;;;;;;;18.69;49.22;96030.44;5071228;28;20029;-75
2021/06/14 04:49:42;;;;;;;4.45;3.20;;;;;;;18.76;48.57;96019.13;5071072;28;20106;-75
2021/06/14 04:52:08;;;;;;;9.77;4.03;;;;;;;18.78;48.47;96021.47;5070339;28;20170;-74
2021/06/14 04:54:33;;;;;;;3.90;3.00;;;;;;;18.82;48.37;95992.72;5070389;28;20041;-74
2021/06/14 04:56:58;;;;;;;4.45;2.67;;;;;;;18.55;47.91;96015.69;5072678;28;20031;-74
2021/06/14 04:59:24;;;;;;;4.00;3.20;;;;;;;18.74;47.57;96017.88;5046973;28;20051;-74
2021/06/14 05:01:50;;;;;;;3.33;2.83;;;;;;;18.96;47.64;96022.84;5070653;28;20052;-75
2021/06/14 05:04:15;;;;;;;5.72;2.88;;;;;;;18.59;47.06;96011.19;5070431;28;20125;-74
2021/06/14 05:06:40;;;;;;;3.17;2.88;;;;;;;18.97;47.88;96024.41;5070592;28;20039;-75
2021/06/14 05:09:06;;;;;;;3.10;2.67;;;;;;;18.89;47.54;95984.88;5072600;28;20040;-75
2021/06/14 05:11:31;;;;;;;5.35;3.00;;;;;;;19.03;46.99;96006.09;5052548;28;20090;-75
2021/06/14 05:13:57;;;;;;;3.90;2.90;;;;;;;19.23;46.43;96022.16;5054711;28;20068;-75
2021/06/14 05:16:22;;;;;;;4.88;2.88;;;;;;;19.22;46.52;95999.03;5050432;28;20632;-75
2021/06/14 05:18:47;;;;;;;6.60;3.22;;;;;;;19.10;46.33;96003.66;5032817;28;20087;-75
2021/06/14 05:21:13;;;;;;;6.00;3.00;;;;;;;19.17;46.68;96020.84;5050270;28;20563;-75
2021/06/14 05:23:38;;;;;;;4.43;3.13;;;;;;;19.07;46.47;95983.53;5051938;28;20474;-74
2021/06/14 05:26:03;;;;;;;6.13;3.10;;;;;;;19.19;46.53;95986.22;5050168;28;20094;-72
2021/06/14 05:28:29;;;;;;;6.15;2.90;;;;;;;19.47;45.87;96015.19;5049703;28;20561;-72
2021/06/14 05:30:54;;;;;;;3.40;2.90;;;;;;;19.51;45.22;96013.41;5046208;28;20348;-74
2021/06/14 05:33:20;;;;;;;4.65;2.67;;;;;;;19.52;45.05;96022.28;5049008;28;20114;-79
2021/06/14 05:35:45;;;;;;;6.30;3.13;;;;;;;19.37;45.11;95997.56;5052310;28;20035;-70
2021/06/14 05:38:11;;;;;;;5.85;2.88;;;;;;;19.42;45.04;95999.25;5050571;28;20460;-71
2021/06/14 05:40:37;;;;;;;4.13;3.13;;;;;;;19.54;44.92;96009.22;5030906;28;20324;-70
2021/06/14 05:43:02;;;;;;;4.43;2.92;;;;;;;19.12;44.93;96014.88;5030879;28;20101;-71
2021/06/14 05:45:28;;;;;;;4.38;2.67;;;;;;;19.26;45.72;96014.53;5031395;28;20036;-71
2021/06/14 05:47:53;;;;;;;9.38;3.25;;;;;;;19.31;45.70;96000.84;5051118;28;20108;-70
2021/06/14 05:50:19;;;;;;;7.22;3.33;;;;;;;19.39;44.31;96002.59;5049443;28;20052;-72
2021/06/14 05:52:44;;;;;;;5.13;2.83;;;;;;;19.48;44.59;96016.75;5049028;28;20043;-70
2021/06/14 05:55:10;;;;;;;4.47;2.90;;;;;;;19.41;44.52;96011.16;5050176;28;20037;-86
2021/06/14 05:57:35;;;;;;;6.47;3.10;;;;;;;19.37;44.62;96005.66;5033865;28;20033;-83
2021/06/14 06:00:01;;;;;;;5.05;3.05;;;;;;;18.90;45.87;95981.06;5072621;28;20464;-85
2021/06/14 06:02:26;;;;;;;6.47;2.88;;;;;;;19.02;45.93;95983.75;5071848;28;20616;-84
2021/06/14 06:04:51;;;;;;;8.13;2.95;;;;;;;19.18;46.06;95998.13;5054046;28;20135;-83
2021/06/14 06:07:17;;;;;;;6.97;3.58;;;;;;;19.26;46.18;95993.75;5071769;28;20035;-86
2021/06/14 06:09:43;;;;;;;5.32;3.33;;;;;;;19.20;45.96;96033.66;5072056;28;20046;-84
2021/06/14 06:12:09;;;;;;;6.32;3.00;;;;;;;19.19;45.97;96004.31;5055596;28;20060;-84
2021/06/14 06:14:42;;;;;;;3.55;2.70;;;;;;;19.35;45.74;96017.91;5033535;28;20040;-81
2021/06/14 06:17:08;;;;;;;5.10;3.08;;;;;;;18.89;45.61;95939.06;5044884;28;20038;-74
2021/06/14 06:19:34;;;;;;;5.18;3.20;;;;;;;18.92;46.00;95955.31;5022125;28;20610;-75
2021/06/14 06:21:59;;;;;;;5.07;3.15;;;;;;;19.37;46.68;96016.44;5037833;28;20442;-64
2021/06/14 06:24:25;;;;;;;3.20;2.58;;;;;;;19.43;46.26;96001.59;5048328;28;20033;-65
2021/06/14 06:26:50;;;;;;;6.45;3.17;;;;;;;19.60;45.61;96011.38;5050749;28;20021;-68
2021/06/14 06:29:15;;;;;;;6.53;3.35;;;;;;;19.46;45.05;96005.53;5048344;28;20068;-66
2021/06/14 06:31:41;;;;;;;6.00;3.17;;;;;;;19.33;46.51;95979.69;5036401;28;20530;-65
2021/06/14 06:34:06;;;;;;;4.55;2.83;;;;;;;19.76;45.78;95997.16;5028322;28;20103;-64
2021/06/14 06:36:31;;;;;;;8.95;3.17;;;;;;;19.57;45.01;95949.97;5028745;28;20040;-66
2021/06/14 06:38:57;;;;;;;7.35;3.28;;;;;;;19.73;45.09;95991.34;5030743;28;20120;-67
2021/06/14 06:41:22;;;;;;;5.25;3.30;;;;;;;19.51;44.80;95970.22;5046670;28;20041;-74
2021/06/14 06:43:47;;;;;;;8.10;3.50;;;;;;;19.57;44.77;95960.75;5046536;28;20094;-68
2021/06/14 06:46:13;;;;;;;5.78;2.65;;;;;;;19.58;45.43;95962.31;5048452;28;20086;-68
2021/06/14 06:48:39;;;;;;;7.65;3.25;;;;;;;19.95;44.86;95986.53;5048594;28;20087;-69
2021/06/14 06:51:05;;;;;;;7.60;2.92;;;;;;;20.09;45.98;95988.84;5032462;28;20025;-66
2021/06/14 06:53:30;;;;;;;4.28;2.97;;;;;;;20.10;45.11;95993.13;5047916;28;20124;-64
2021/06/14 06:55:56;;;;;;;7.95;3.40;;;;;;;20.00;44.82;95994.41;5048113;28;20106;-64
2021/06/14 06:58:22;;;;;;;4.40;2.70;;;;;;;19.95;44.48;95979.22;5019871;28;20105;-67
2021/06/14 07:00:48;;;;;;;5.30;2.92;;;;;;;19.89;44.64;95996.00;5033495;28;20043;-66
2021/06/14 07:03:18;;;;;;;7.57;2.97;;;;;;;19.70;43.56;95956.13;5045830;28;20033;-75
2021/06/14 07:05:44;;;;;;;6.40;2.75;;;;;;;19.52;43.51;95968.31;5051565;28;20060;-78
2021/06/14 07:08:10;;;;;;;4.60;2.38;;;;;;;19.81;43.79;95989.63;5049969;28;20562;-77
2021/06/14 07:10:37;;;;;;;3.13;2.50;;;;;;;19.67;44.02;95963.00;5037426;28;20121;-72
2021/06/14 07:13:03;;;;;;;4.43;2.58;;;;;;;19.99;44.34;95995.53;5027515;28;20044;-75
2021/06/14 07:15:29;;;;;;;6.15;2.47;;;;;;;20.05;43.25;95985.25;5028956;28;20817;-73
2021/06/14 07:17:55;;;;;;;4.38;2.50;;;;;;;19.98;43.61;95969.66;5029958;28;20044;-74
2021/06/14 07:20:20;;;;;;;3.42;2.13;;;;;;;19.74;42.76;95975.91;5028756;28;20105;-72
2021/06/14 07:22:45;;;;;;;6.28;2.72;;;;;;;19.92;44.53;95965.63;5027998;28;20037;-69
2021/06/14 07:25:12;;;;;;;4.35;2.35;;;;;;;20.10;42.91;95991.19;5028289;28;20372;-69
2021/06/14 07:27:38;;;;;;;4.18;2.63;;;;;;;20.26;42.49;95989.31;5028516;28;20038;-68
2021/06/14 07:30:06;;;;;;;2.97;2.28;;;;;;;20.46;43.59;95984.88;5029828;28;20029;-69
2021/06/14 07:32:31;;;;;;;3.47;2.30;;;;;;;20.37;42.29;95970.72;5041354;28;20052;-69
2021/06/14 07:34:57;;;;;;;4.50;2.20;;;;;;;20.33;43.72;95979.88;5063129;28;20041;-68
2021/06/14 07:37:22;;;;;;;6.32;2.50;;;;;;;20.60;42.37;95989.84;5048215;28;20398;-70
2021/06/14 07:39:47;;;;;;;4.82;2.58;;;;;;;20.63;42.91;95972.97;5048226;28;20194;-69
2021/06/14 07:42:13;;;;;;;4.93;2.72;;;;;;;20.82;42.13;95982.28;5046655;28;20029;-68
2021/06/14 07:44:39;;;;;;;6.57;3.20;;;;;;;20.76;42.86;95977.13;5034955;28;20036;-69
2021/06/14 07:47:05;;;;;;;6.60;2.90;;;;;;;20.43;43.32;95982.84;5038895;28;20110;-70
2021/06/14 07:49:31;;;;;;;5.57;2.70;;;;;;;20.40;43.52;95986.22;5048470;28;20041;-69
2021/06/14 07:51:57;;;;;;;6.80;3.30;;;;;;;20.40;43.56;95974.63;5054619;28;20048;-69
2021/06/14 07:54:22;;;;;;;4.88;2.70;;;;;;;20.46;43.09;95935.41;5049496;28;20190;-69
2021/06/14 07:56:49;;;;;;;5.43;2.70;;;;;;;20.53;43.70;95970.00;5070142;28;20491;-69
2021/06/14 07:59:14;;;;;;;5.45;2.92;;;;;;;20.02;43.96;95975.94;5039932;28;20057;-69
2021/06/14 08:01:40;;;;;;;5.93;2.78;;;;;;;20.54;43.57;95974.25;5028004;28;20025;-69
2021/06/14 08:04:06;;;;;;;6.03;2.90;;;;;;;20.43;43.73;95971.25;5026350;28;20491;-68
2021/06/14 08:06:31;;;;;;;6.28;2.55;;;;;;;20.40;43.03;95980.03;5031203;28;20154;-68
2021/06/14 08:08:56;;;;;;;9.38;3.05;;;;;;;20.11;43.33;95979.25;5032351;28;20087;-68
2021/06/14 08:11:22;;;;;;;7.22;2.83;;;;;;;20.35;42.94;95978.38;5029613;28;20037;-68
2021/06/14 08:13:48;;;;;;;5.15;2.95;;;;;;;20.51;42.35;95948.69;5044438;28;20055;-69
2021/06/14 08:16:13;;;;;;;7.82;3.03;;;;;;;20.87;42.88;95954.97;5055137;28;20036;-68
2021/06/14 08:26:27;;;;;;;4.50;2.47;;;;;;;21.36;40.52;95970.84;5071470;28;20036;-67
2021/06/14 08:28:53;;;;;;;6.30;2.30;;;;;;;21.31;39.67;95969.19;5046330;28;20073;-68
2021/06/14 08:31:20;;;;;;;4.95;2.00;;;;;;;21.39;41.32;95967.41;5037787;28;20036;-68
2021/06/14 08:33:45;;;;;;;9.63;2.50;;;;;;;21.28;41.32;95956.31;5070703;28;20044;-68
2021/06/14 08:36:12;;;;;;;2.80;2.40;;;;;;;21.45;40.45;95960.59;5052725;28;20028;-67
2021/06/14 08:38:37;;;;;;;5.13;2.67;;;;;;;21.59;40.12;95969.00;5072911;28;20056;-68
2021/06/14 08:41:03;;;;;;;5.22;2.65;;;;;;;21.53;40.44;95946.06;5070924;28;20082;-69
2021/06/14 08:43:29;;;;;;;4.40;2.33;;;;;;;21.77;40.71;95969.41;5067002;28;20033;-69
2021/06/14 08:45:56;;;;;;;7.15;3.05;;;;;;;21.89;39.46;95958.41;5050696;28;20099;-70
2021/06/14 08:48:22;;;;;;;3.63;2.40;;;;;;;21.96;40.02;95949.66;5050846;28;20021;-69
2021/06/14 08:50:47;;;;;;;4.78;2.70;;;;;;;21.77;40.55;95953.94;5053388;28;20025;-68
2021/06/14 08:53:13;;;;;;;4.47;2.50;;;;;;;21.73;39.46;95955.78;5032464;28;20124;-68
2021/06/14 08:55:38;;;;;;;3.67;2.30;;;;;;;21.53;39.73;95943.34;5050543;28;20414;-68
2021/06/14 08:58:04;;;;;;;5.65;2.55;;;;;;;21.65;39.79;95945.94;5051108;28;20120;-67
2021/06/14 09:00:31;;;;;;;5.10;2.30;;;;;;;21.43;40.02;95928.47;5050426;28;20122;-67
2021/06/14 09:02:57;;;;;;;4.53;2.20;;;;;;;21.88;39.16;95931.69;5052313;28;20032;-68
2021/06/14 09:05:23;;;;;;;4.38;2.60;;;;;;;22.07;38.28;95934.41;5050866;28;20048;-68
2021/06/14 09:07:50;;;;;;;4.88;2.30;;;;;;;22.13;37.21;95927.56;5032812;28;20494;-68
2021/06/14 09:10:33;;;;;;;4.00;2.50;;;;;;;22.31;38.18;95944.91;5050649;28;20037;-67
2021/06/14 09:13:12;;;;;;;2.80;2.35;;;;;;;22.25;37.96;95946.34;5050057;28;20128;-68
2021/06/14 09:15:38;;;;;;;20.83;2.88;;;;;;;22.24;37.74;95927.75;5032072;28;20041;-69
2021/06/14 09:18:26;;;;;;;5.72;2.90;;;;;;;22.29;37.00;95952.63;5052495;28;20021;-72
2021/06/14 09:21:06;;;;;;;5.20;2.60;;;;;;;22.16;38.04;95935.00;5051094;28;20120;-69
2021/06/14 09:23:53;;;;;;;4.57;3.03;;;;;;;22.15;37.83;95946.94;5031588;28;20067;-69
2021/06/14 09:26:22;;;;;;;3.60;2.10;;;;;;;22.14;37.92;95936.47;5050023;28;20128;-71
2021/06/14 09:28:51;;;;;;;3.15;2.42;;;;;;;22.28;37.36;95932.09;5031738;28;20429;-79
2021/06/14 09:31:17;;;;;;;5.55;2.67;;;;;;;22.29;37.88;95920.13;5032854;28;20034;-74
2021/06/14 09:33:47;;;;;;;3.78;2.10;;;;;;;22.47;38.16;95925.06;5031963;28;20040;-77
2021/06/14 09:36:15;;;;;;;3.53;2.45;;;;;;;22.22;37.35;95911.88;5049922;28;20026;-65
2021/06/14 09:38:41;;;;;;;5.43;2.47;;;;;;;22.50;37.14;95932.47;5031808;28;20075;-67
2021/06/14 09:41:16;;;;;;;6.45;2.45;;;;;;;22.53;36.57;95934.47;5030021;28;20026;-68
2021/06/14 09:43:44;;;;;;;3.25;2.30;;;;;;;22.38;36.57;95936.16;5028844;28;20037;-67
2021/06/14 09:46:29;;;;;;;4.45;2.55;;;;;;;22.46;37.42;95934.34;5029335;28;20052;-66
2021/06/14 09:48:55;;;;;;;2.78;2.30;;;;;;;22.63;35.41;95920.31;5029411;28;20048;-67
2021/06/14 09:51:22;;;;;;;4.05;2.55;;;;;;;22.60;36.08;95929.16;5028523;28;20436;-67
2021/06/14 09:53:52;;;;;;;3.95;2.38;;;;;;;22.50;37.03;95932.47;5031124;28;20083;-72
2021/06/14 09:56:20;;;;;;;7.57;2.30;;;;;;;22.59;36.32;95930.31;5031780;28;20041;-81
2021/06/14 09:58:47;;;;;;;6.07;2.38;;;;;;;22.52;35.81;95928.28;5030588;28;20128;-73
2021/06/14 10:01:13;;;;;;;5.03;2.45;;;;;;;22.35;35.04;95919.81;5029609;28;20061;-69
2021/06/14 10:03:47;;;;;;;3.67;2.28;;;;;;;22.18;35.12;95915.66;5029264;28;20302;-74
2021/06/14 10:06:14;;;;;;;5.30;2.92;;;;;;;22.03;34.87;95879.34;5029859;28;20033;-76
2021/06/14 10:08:43;;;;;;;4.57;2.53;;;;;;;22.22;35.85;95925.41;5031165;28;20022;-75
2021/06/14 10:11:12;;;;;;;6.45;3.40;;;;;;;22.43;34.66;95925.00;5030331;28;20037;-76
2021/06/14 10:13:41;;;;;;;4.05;2.63;;;;;;;22.19;36.77;95919.94;5029602;28;20030;-77
2021/06/14 10:16:08;;;;;;;5.05;2.92;;;;;;;22.70;36.41;95914.22;5029520;28;20499;-75
2021/06/14 10:18:37;;;;;;;4.60;2.30;;;;;;;22.68;35.61;95882.03;5027441;28;20515;-64
2021/06/14 10:21:05;;;;;;;6.50;2.58;;;;;;;22.47;36.43;95884.38;5031044;28;20029;-64
2021/06/14 10:23:31;;;;;;;6.20;2.55;;;;;;;22.74;37.64;95894.16;5028627;28;20030;-64
2021/06/14 10:25:58;;;;;;;5.13;2.90;;;;;;;22.92;37.06;95908.00;5026686;28;20107;-65
2021/06/14 10:28:28;;;;;;;9.13;2.60;;;;;;;21.95;36.28;95742.22;5027549;28;20044;-65
2021/06/14 10:30:54;;;;;;;5.55;2.58;;;;;;;22.96;36.34;95892.56;5027563;28;20053;-65
2021/06/14 10:33:24;;;;;;;6.45;2.55;;;;;;;22.47;38.03;95838.31;5027621;28;20526;-64
2021/06/14 10:35:53;;;;;;;5.72;2.50;;;;;;;23.20;36.60;95877.78;5031046;28;20017;-65
2021/06/14 10:38:19;;;;;;;3.15;2.28;;;;;;;23.29;35.14;95888.38;5028689;28;20729;-72
2021/06/14 10:40:49;;;;;;;3.90;2.38;;;;;;;23.10;35.69;95892.00;5029210;28;20546;-69
2021/06/14 10:43:15;;;;;;;5.53;2.83;;;;;;;23.01;35.21;95891.47;5037161;28;20048;-70
2021/06/14 10:45:41;;;;;;;3.17;2.20;;;;;;;22.87;34.15;95839.69;5048358;28;20025;-77
2021/06/14 10:48:10;;;;;;;6.93;2.85;;;;;;;22.91;34.41;95837.84;5032035;28;20036;-76
2021/06/14 10:50:36;;;;;;;4.90;2.50;;;;;;;23.04;34.76;95882.63;5049526;28;20419;-75
2021/06/14 10:53:03;;;;;;;3.63;2.42;;;;;;;23.05;35.38;95857.03;5048515;28;20066;-76
2021/06/14 10:55:31;;;;;;;4.57;2.60;;;;;;;22.96;34.51;95872.78;5048990;28;20493;-77
2021/06/14 10:57:57;;;;;;;2.90;2.20;;;;;;;23.24;34.45;95883.28;5049121;28;20041;-75
2021/06/14 11:00:25;;;;;;;2.60;2.35;;;;;;;23.27;33.40;95864.31;5048535;28;20032;-76
2021/06/14 11:02:57;;;;;;;4.57;2.17;;;;;;;23.17;33.71;95877.75;5050466;28;20039;-75
2021/06/14 11:05:42;;;;;;;5.68;2.13;;;;;;;22.62;34.98;95848.22;5046890;28;20040;-75
2021/06/14 11:08:18;;;;;;;5.38;2.17;;;;;;;23.01;34.02;95873.25;5048497;28;20036;-74
2021/06/14 11:10:45;;;;;;;4.63;2.33;;;;;;;23.31;34.08;95859.72;5048505;28;20044;-71
2021/06/14 11:13:15;;;;;;;3.45;2.17;;;;;;;22.84;35.31;95858.25;5030046;28;20033;-71
2021/06/14 11:15:43;;;;;;;6.47;2.75;;;;;;;23.32;34.65;95827.91;5044216;28;20041;-70
2021/06/14 11:18:21;;;;;;;7.78;2.42;;;;;;;23.40;34.18;95824.16;5069878;28;20033;-70
2021/06/14 11:20:47;;;;;;;4.10;2.33;;;;;;;23.58;33.42;95822.41;5068717;28;20047;-70
2021/06/14 11:23:23;;;;;;;5.05;2.65;;;;;;;23.51;33.87;95849.50;5067854;28;20032;-72
2021/06/14 11:25:48;;;;;;;4.20;2.80;;;;;;;23.17;33.94;95831.59;5068183;28;20037;-72
2021/06/14 11:28:29;;;;;;;6.05;2.85;;;;;;;23.03;33.44;95819.44;5068520;28;20397;-71
2021/06/14 11:30:56;;;;;;;2.85;2.33;;;;;;;23.01;33.63;95831.78;5032872;28;20106;-71
2021/06/14 11:33:27;;;;;;;1.95;1.58;;;;;;;23.41;34.32;95824.94;5036010;28;20033;-73
2021/06/14 11:35:54;;;;;;;3.50;2.28;;;;;;;23.71;33.93;95806.69;5050119;28;20029;-72
2021/06/14 11:38:21;;;;;;;4.30;2.25;;;;;;;23.54;33.07;95810.72;5030197;28;20075;-71
2021/06/14 11:40:56;;;;;;;4.32;2.13;;;;;;;23.82;32.65;95812.22;5047762;28;20376;-72
2021/06/14 11:43:23;;;;;;;2.85;1.98;;;;;;;23.84;33.04;95797.09;5047499;28;20044;-72